sensor_id;sensor_type;location;lat;lon;timestamp;pressure;altitude;pressure_sealevel;temperature;humidity
72262;BME280;60173;52.112;8.648;2023-03-26T00:00:50;99567.94;;;7.28;89.01
72262;BME280;60173;52.112;8.648;2023-03-26T00:03:17;99570.44;;;7.24;89.55
72262;BME280;60173;52.112;8.648;2023-03-26T00:05:44;99574.16;;;7.29;89.51
72262;BME280;60173;52.112;8.648;2023-03-26T00:08:11;99576.25;;;7.32;89.47
72262;BME280;60173;52.112;8.648;2023-03-26T00:10:39;99577.88;;;7.33;89.35
72262;BME280;60173;52.112;8.648;2023-03-26T00:13:06;99579.94;;;7.22;89.43
72262;BME280;60173;52.112;8.648;2023-03-26T00:15:35;99587.25;;;7.21;89.38
72262;BME280;60173;52.112;8.648;2023-03-26T00:18:01;99589.03;;;7.12;89.46
72262;BME280;60173;52.112;8.648;2023-03-26T00:20:29;99595.88;;;7.23;88.97
72262;BME280;60173;52.112;8.648;2023-03-26T00:22:56;99590.03;;;7.16;89.07
72262;BME280;60173;52.112;8.648;2023-03-26T00:25:22;99597.47;;;7.24;88.84
72262;BME280;60173;52.112;8.648;2023-03-26T00:27:49;99599.25;;;7.15;89.09
72262;BME280;60173;52.112;8.648;2023-03-26T00:30:15;99595.22;;;7.13;89.27
72262;BME280;60173;52.112;8.648;2023-03-26T00:32:42;99613.34;;;7.12;88.97
72262;BME280;60173;52.112;8.648;2023-03-26T00:35:19;99612.75;;;7.15;89.37
72262;BME280;60173;52.112;8.648;2023-03-26T00:37:45;99615.00;;;7.08;89.63
72262;BME280;60173;52.112;8.648;2023-03-26T00:40:12;99610.28;;;7.00;90.12
72262;BME280;60173;52.112;8.648;2023-03-26T00:42:38;99608.59;;;7.04;90.40
72262;BME280;60173;52.112;8.648;2023-03-26T00:45:05;99612.91;;;7.05;89.74
72262;BME280;60173;52.112;8.648;2023-03-26T00:47:33;99615.53;;;7.10;89.71
72262;BME280;60173;52.112;8.648;2023-03-26T00:49:59;99615.59;;;7.05;89.63
72262;BME280;60173;52.112;8.648;2023-03-26T00:52:26;99611.38;;;6.99;90.04
72262;BME280;60173;52.112;8.648;2023-03-26T00:54:53;99610.19;;;7.05;90.01
72262;BME280;60173;52.112;8.648;2023-03-26T00:57:20;99612.19;;;6.99;90.25
72262;BME280;60173;52.112;8.648;2023-03-26T01:00:00;99615.59;;;7.05;90.14
72262;BME280;60173;52.112;8.648;2023-03-26T01:02:27;99617.31;;;7.01;89.92
72262;BME280;60173;52.112;8.648;2023-03-26T01:04:56;99616.63;;;7.09;89.57
72262;BME280;60173;52.112;8.648;2023-03-26T01:07:25;99616.84;;;7.13;89.67
72262;BME280;60173;52.112;8.648;2023-03-26T01:09:52;99619.69;;;7.02;90.16
72262;BME280;60173;52.112;8.648;2023-03-26T01:12:21;99615.81;;;7.09;90.39
72262;BME280;60173;52.112;8.648;2023-03-26T01:14:49;99614.53;;;7.06;90.49
72262;BME280;60173;52.112;8.648;2023-03-26T01:17:17;99617.38;;;6.96;90.80
72262;BME280;60173;52.112;8.648;2023-03-26T01:20:06;99609.88;;;6.93;90.89
72262;BME280;60173;52.112;8.648;2023-03-26T01:22:35;99615.59;;;7.05;91.19
72262;BME280;60173;52.112;8.648;2023-03-26T01:25:02;99614.00;;;7.04;90.97
72262;BME280;60173;52.112;8.648;2023-03-26T01:27:34;99614.81;;;7.05;91.02
72262;BME280;60173;52.112;8.648;2023-03-26T01:30:17;99613.50;;;7.02;91.24
72262;BME280;60173;52.112;8.648;2023-03-26T01:33:47;99605.38;;;7.02;91.43
72262;BME280;60173;52.112;8.648;2023-03-26T01:41:20;99598.00;;;7.08;90.87
72262;BME280;60173;52.112;8.648;2023-03-26T01:44:09;99604.81;;;7.05;91.67
72262;BME280;60173;52.112;8.648;2023-03-26T01:46:41;99605.13;;;7.04;91.22
72262;BME280;60173;52.112;8.648;2023-03-26T01:49:08;99598.72;;;7.13;91.18
72262;BME280;60173;52.112;8.648;2023-03-26T01:51:35;99592.03;;;7.11;90.98
72262;BME280;60173;52.112;8.648;2023-03-26T01:54:03;99594.44;;;7.12;90.68
72262;BME280;60173;52.112;8.648;2023-03-26T01:59:46;99595.09;;;7.04;90.70
72262;BME280;60173;52.112;8.648;2023-03-26T02:10:13;99590.91;;;6.98;91.07
72262;BME280;60173;52.112;8.648;2023-03-26T02:12:42;99588.59;;;6.72;91.56
72262;BME280;60173;52.112;8.648;2023-03-26T02:15:10;99582.09;;;6.73;92.33
72262;BME280;60173;52.112;8.648;2023-03-26T02:17:37;99571.88;;;6.70;92.43
72262;BME280;60173;52.112;8.648;2023-03-26T02:20:07;99577.13;;;6.81;92.58
72262;BME280;60173;52.112;8.648;2023-03-26T02:22:38;99575.69;;;6.69;92.67
72262;BME280;60173;52.112;8.648;2023-03-26T02:25:07;99572.59;;;6.76;93.21
72262;BME280;60173;52.112;8.648;2023-03-26T02:27:34;99565.31;;;6.76;92.98
72262;BME280;60173;52.112;8.648;2023-03-26T02:30:01;99565.69;;;6.70;93.23
72262;BME280;60173;52.112;8.648;2023-03-26T02:32:27;99561.16;;;6.65;93.64
72262;BME280;60173;52.112;8.648;2023-03-26T02:34:54;99560.28;;;6.70;93.31
72262;BME280;60173;52.112;8.648;2023-03-26T02:37:21;99557.31;;;6.71;93.11
72262;BME280;60173;52.112;8.648;2023-03-26T02:39:47;99549.69;;;6.60;93.35
72262;BME280;60173;52.112;8.648;2023-03-26T02:42:13;99545.81;;;6.47;94.06
72262;BME280;60173;52.112;8.648;2023-03-26T02:44:40;99547.19;;;6.44;94.08
72262;BME280;60173;52.112;8.648;2023-03-26T02:47:06;99547.78;;;6.41;94.07
72262;BME280;60173;52.112;8.648;2023-03-26T02:49:33;99547.34;;;6.34;94.21
72262;BME280;60173;52.112;8.648;2023-03-26T02:51:59;99544.94;;;6.32;94.33
72262;BME280;60173;52.112;8.648;2023-03-26T02:54:26;99541.00;;;6.44;94.39
72262;BME280;60173;52.112;8.648;2023-03-26T02:56:52;99547.84;;;6.55;93.62
72262;BME280;60173;52.112;8.648;2023-03-26T02:59:18;99546.97;;;6.60;93.43
72262;BME280;60173;52.112;8.648;2023-03-26T03:01:45;99549.09;;;6.63;93.52
72262;BME280;60173;52.112;8.648;2023-03-26T03:04:11;99549.88;;;6.63;93.62
72262;BME280;60173;52.112;8.648;2023-03-26T03:06:39;99538.72;;;6.70;93.18
72262;BME280;60173;52.112;8.648;2023-03-26T03:09:06;99537.91;;;6.69;93.00
72262;BME280;60173;52.112;8.648;2023-03-26T03:11:33;99543.13;;;6.79;92.82
72262;BME280;60173;52.112;8.648;2023-03-26T03:14:00;99541.72;;;6.68;92.73
72262;BME280;60173;52.112;8.648;2023-03-26T03:16:26;99535.72;;;6.71;92.95
72262;BME280;60173;52.112;8.648;2023-03-26T03:18:53;99535.22;;;6.69;93.08
72262;BME280;60173;52.112;8.648;2023-03-26T03:21:23;99530.16;;;6.82;92.83
72262;BME280;60173;52.112;8.648;2023-03-26T03:23:50;99529.03;;;6.83;92.84
72262;BME280;60173;52.112;8.648;2023-03-26T03:26:19;99530.78;;;6.92;92.72
72262;BME280;60173;52.112;8.648;2023-03-26T03:28:47;99524.47;;;6.97;92.86
72262;BME280;60173;52.112;8.648;2023-03-26T03:31:15;99522.81;;;7.01;92.75
72262;BME280;60173;52.112;8.648;2023-03-26T03:33:43;99526.03;;;7.03;93.19
72262;BME280;60173;52.112;8.648;2023-03-26T03:36:09;99519.19;;;7.06;93.14
72262;BME280;60173;52.112;8.648;2023-03-26T03:38:47;99519.81;;;7.16;92.85
72262;BME280;60173;52.112;8.648;2023-03-26T03:41:14;99517.31;;;7.06;92.93
72262;BME280;60173;52.112;8.648;2023-03-26T03:43:40;99512.00;;;7.01;93.49
72262;BME280;60173;52.112;8.648;2023-03-26T03:46:06;99505.81;;;7.00;94.06
72262;BME280;60173;52.112;8.648;2023-03-26T03:48:33;99510.38;;;7.00;94.12
72262;BME280;60173;52.112;8.648;2023-03-26T03:50:59;99520.03;;;7.06;94.62
72262;BME280;60173;52.112;8.648;2023-03-26T03:53:25;99513.13;;;7.14;94.14
72262;BME280;60173;52.112;8.648;2023-03-26T03:55:53;99514.41;;;7.16;94.14
72262;BME280;60173;52.112;8.648;2023-03-26T03:58:24;99516.13;;;7.12;93.81
72262;BME280;60173;52.112;8.648;2023-03-26T04:00:51;99512.41;;;7.08;94.29
72262;BME280;60173;52.112;8.648;2023-03-26T04:03:18;99514.63;;;7.06;94.74
72262;BME280;60173;52.112;8.648;2023-03-26T04:05:59;99508.72;;;7.04;94.68
72262;BME280;60173;52.112;8.648;2023-03-26T04:08:25;99508.03;;;7.12;94.52
72262;BME280;60173;52.112;8.648;2023-03-26T04:10:51;99508.03;;;7.12;94.19
72262;BME280;60173;52.112;8.648;2023-03-26T04:13:18;99506.22;;;7.08;94.55
72262;BME280;60173;52.112;8.648;2023-03-26T04:15:44;99510.81;;;7.07;94.55
72262;BME280;60173;52.112;8.648;2023-03-26T04:18:10;99505.00;;;7.14;94.41
72262;BME280;60173;52.112;8.648;2023-03-26T04:20:39;99507.44;;;7.15;94.41
72262;BME280;60173;52.112;8.648;2023-03-26T04:23:05;99506.22;;;7.21;94.19
72262;BME280;60173;52.112;8.648;2023-03-26T04:25:32;99503.63;;;7.16;94.45
72262;BME280;60173;52.112;8.648;2023-03-26T04:28:04;99501.72;;;7.17;94.50
72262;BME280;60173;52.112;8.648;2023-03-26T04:30:33;99499.25;;;7.20;94.71
72262;BME280;60173;52.112;8.648;2023-03-26T04:33:01;99495.59;;;7.11;94.95
72262;BME280;60173;52.112;8.648;2023-03-26T04:35:32;99497.72;;;7.14;95.03
72262;BME280;60173;52.112;8.648;2023-03-26T04:38:02;99489.22;;;7.07;95.03
72262;BME280;60173;52.112;8.648;2023-03-26T04:40:29;99495.13;;;7.09;95.54
72262;BME280;60173;52.112;8.648;2023-03-26T04:42:56;99486.59;;;7.02;95.75
72262;BME280;60173;52.112;8.648;2023-03-26T04:45:22;99488.78;;;7.00;95.73
72262;BME280;60173;52.112;8.648;2023-03-26T04:47:49;99491.19;;;7.01;95.66
72262;BME280;60173;52.112;8.648;2023-03-26T04:50:16;99490.91;;;7.03;95.57
72262;BME280;60173;52.112;8.648;2023-03-26T04:52:42;99482.00;;;7.02;95.82
72262;BME280;60173;52.112;8.648;2023-03-26T04:55:18;99480.91;;;7.04;95.75
72262;BME280;60173;52.112;8.648;2023-03-26T04:57:49;99483.31;;;7.05;95.58
72262;BME280;60173;52.112;8.648;2023-03-26T05:00:18;99483.63;;;7.04;95.81
72262;BME280;60173;52.112;8.648;2023-03-26T05:02:45;99480.31;;;7.07;95.81
72262;BME280;60173;52.112;8.648;2023-03-26T05:05:11;99482.81;;;7.03;95.80
72262;BME280;60173;52.112;8.648;2023-03-26T05:07:38;99477.03;;;7.10;95.78
72262;BME280;60173;52.112;8.648;2023-03-26T05:10:04;99475.81;;;7.02;95.96
72262;BME280;60173;52.112;8.648;2023-03-26T05:12:31;99466.22;;;7.10;96.15
72262;BME280;60173;52.112;8.648;2023-03-26T05:14:57;99461.81;;;7.14;95.85
72262;BME280;60173;52.112;8.648;2023-03-26T05:17:24;99457.13;;;7.19;95.69
72262;BME280;60173;52.112;8.648;2023-03-26T05:19:51;99466.00;;;7.20;95.63
72262;BME280;60173;52.112;8.648;2023-03-26T05:22:18;99455.53;;;7.18;95.59
72262;BME280;60173;52.112;8.648;2023-03-26T05:24:44;99460.41;;;7.16;95.65
72262;BME280;60173;52.112;8.648;2023-03-26T05:27:14;99452.41;;;7.25;95.58
72262;BME280;60173;52.112;8.648;2023-03-26T05:29:41;99453.44;;;7.29;95.54
72262;BME280;60173;52.112;8.648;2023-03-26T05:32:08;99450.31;;;7.36;95.46
72262;BME280;60173;52.112;8.648;2023-03-26T05:34:35;99449.13;;;7.42;95.28
72262;BME280;60173;52.112;8.648;2023-03-26T05:37:02;99448.72;;;7.35;95.28
72262;BME280;60173;52.112;8.648;2023-03-26T05:39:29;99443.81;;;7.37;95.53
72262;BME280;60173;52.112;8.648;2023-03-26T05:41:55;99449.53;;;7.35;95.63
72262;BME280;60173;52.112;8.648;2023-03-26T05:44:21;99451.72;;;7.33;95.53
72262;BME280;60173;52.112;8.648;2023-03-26T05:46:48;99449.72;;;7.39;95.63
72262;BME280;60173;52.112;8.648;2023-03-26T05:49:14;99445.22;;;7.34;95.76
72262;BME280;60173;52.112;8.648;2023-03-26T05:51:40;99446.81;;;7.35;95.66
72262;BME280;60173;52.112;8.648;2023-03-26T05:54:07;99432.41;;;7.40;95.70
72262;BME280;60173;52.112;8.648;2023-03-26T05:56:33;99438.81;;;7.44;95.57
72262;BME280;60173;52.112;8.648;2023-03-26T05:58:59;99439.38;;;7.55;95.26
72262;BME280;60173;52.112;8.648;2023-03-26T06:01:26;99434.19;;;7.58;95.11
72262;BME280;60173;52.112;8.648;2023-03-26T06:03:52;99429.78;;;7.62;94.98
72262;BME280;60173;52.112;8.648;2023-03-26T06:06:19;99426.78;;;7.64;95.26
72262;BME280;60173;52.112;8.648;2023-03-26T06:08:50;99428.13;;;7.75;94.58
72262;BME280;60173;52.112;8.648;2023-03-26T06:11:28;99423.22;;;7.77;94.37
72262;BME280;60173;52.112;8.648;2023-03-26T06:13:55;99416.91;;;7.82;94.49
72262;BME280;60173;52.112;8.648;2023-03-26T06:16:22;99412.91;;;7.79;94.22
72262;BME280;60173;52.112;8.648;2023-03-26T06:18:53;99400.69;;;7.82;94.17
72262;BME280;60173;52.112;8.648;2023-03-26T06:21:24;99404.88;;;7.88;94.18
72262;BME280;60173;52.112;8.648;2023-03-26T06:23:51;99412.38;;;7.91;94.06
72262;BME280;60173;52.112;8.648;2023-03-26T06:26:18;99407.47;;;7.93;93.94
72262;BME280;60173;52.112;8.648;2023-03-26T06:28:44;99400.66;;;7.96;94.14
72262;BME280;60173;52.112;8.648;2023-03-26T06:31:10;99402.25;;;7.97;93.71
72262;BME280;60173;52.112;8.648;2023-03-26T06:33:37;99399.63;;;8.05;93.72
72262;BME280;60173;52.112;8.648;2023-03-26T06:36:04;99399.56;;;8.19;93.21
72262;BME280;60173;52.112;8.648;2023-03-26T06:38:30;99400.28;;;8.11;93.13
72262;BME280;60173;52.112;8.648;2023-03-26T06:41:04;99396.59;;;8.07;93.06
72262;BME280;60173;52.112;8.648;2023-03-26T06:43:31;99397.88;;;8.09;92.87
72262;BME280;60173;52.112;8.648;2023-03-26T06:45:57;99393.94;;;8.15;92.82
72262;BME280;60173;52.112;8.648;2023-03-26T06:48:23;99395.56;;;8.17;92.88
72262;BME280;60173;52.112;8.648;2023-03-26T06:50:50;99395.28;;;8.27;93.05
72262;BME280;60173;52.112;8.648;2023-03-26T06:53:16;99401.47;;;8.41;92.62
72262;BME280;60173;52.112;8.648;2023-03-26T06:55:43;99393.84;;;8.43;92.19
72262;BME280;60173;52.112;8.648;2023-03-26T06:58:10;99394.41;;;8.54;92.47
72262;BME280;60173;52.112;8.648;2023-03-26T07:00:37;99394.91;;;8.65;91.93
72262;BME280;60173;52.112;8.648;2023-03-26T07:03:04;99391.31;;;8.78;91.53
72262;BME280;60173;52.112;8.648;2023-03-26T07:05:31;99388.34;;;8.88;90.78
72262;BME280;60173;52.112;8.648;2023-03-26T07:07:57;99380.63;;;9.13;89.96
72262;BME280;60173;52.112;8.648;2023-03-26T07:10:23;99386.22;;;9.25;88.64
72262;BME280;60173;52.112;8.648;2023-03-26T07:12:51;99380.81;;;9.25;87.82
72262;BME280;60173;52.112;8.648;2023-03-26T07:15:18;99381.94;;;9.24;87.89
72262;BME280;60173;52.112;8.648;2023-03-26T07:17:45;99374.47;;;9.38;87.37
72262;BME280;60173;52.112;8.648;2023-03-26T07:20:12;99374.13;;;9.40;86.07
72262;BME280;60173;52.112;8.648;2023-03-26T07:22:38;99367.28;;;9.51;85.67
72262;BME280;60173;52.112;8.648;2023-03-26T07:25:05;99371.31;;;9.71;84.98
72262;BME280;60173;52.112;8.648;2023-03-26T07:30:16;99365.56;;;9.99;82.63
72262;BME280;60173;52.112;8.648;2023-03-26T07:33:02;99357.72;;;10.14;81.57
72262;BME280;60173;52.112;8.648;2023-03-26T07:35:36;99358.38;;;9.94;81.92
72262;BME280;60173;52.112;8.648;2023-03-26T07:38:34;99354.88;;;9.93;81.70
72262;BME280;60173;52.112;8.648;2023-03-26T07:41:07;99354.69;;;10.16;80.97
72262;BME280;60173;52.112;8.648;2023-03-26T07:46:30;99361.19;;;10.41;80.75
72262;BME280;60173;52.112;8.648;2023-03-26T07:48:57;99358.69;;;10.36;80.00
72262;BME280;60173;52.112;8.648;2023-03-26T07:51:24;99345.72;;;10.42;79.99
72262;BME280;60173;52.112;8.648;2023-03-26T07:53:51;99348.44;;;10.42;80.08
72262;BME280;60173;52.112;8.648;2023-03-26T07:56:33;99348.25;;;10.47;78.87
72262;BME280;60173;52.112;8.648;2023-03-26T07:59:24;99347.47;;;10.46;78.74
72262;BME280;60173;52.112;8.648;2023-03-26T08:02:26;99348.03;;;10.69;78.53
72262;BME280;60173;52.112;8.648;2023-03-26T08:05:17;99345.88;;;10.83;76.94
72262;BME280;60173;52.112;8.648;2023-03-26T08:07:57;99345.94;;;10.66;76.66
72262;BME280;60173;52.112;8.648;2023-03-26T08:13:23;99343.91;;;10.93;75.23
72262;BME280;60173;52.112;8.648;2023-03-26T08:16:11;99347.38;;;11.02;74.82
72262;BME280;60173;52.112;8.648;2023-03-26T08:21:27;99340.44;;;10.83;74.56
72262;BME280;60173;52.112;8.648;2023-03-26T08:24:11;99336.84;;;11.00;73.26
72262;BME280;60173;52.112;8.648;2023-03-26T08:26:53;99333.66;;;10.98;72.01
72262;BME280;60173;52.112;8.648;2023-03-26T08:31:54;99333.25;;;11.17;72.36
72262;BME280;60173;52.112;8.648;2023-03-26T08:34:21;99333.94;;;11.35;72.46
72262;BME280;60173;52.112;8.648;2023-03-26T08:36:48;99334.72;;;11.36;72.16
72262;BME280;60173;52.112;8.648;2023-03-26T08:39:14;99334.84;;;11.18;72.82
72262;BME280;60173;52.112;8.648;2023-03-26T08:45:16;99332.09;;;10.97;72.53
72262;BME280;60173;52.112;8.648;2023-03-26T08:48:09;99334.50;;;10.52;75.06
72262;BME280;60173;52.112;8.648;2023-03-26T08:51:12;99329.16;;;10.73;75.20
72262;BME280;60173;52.112;8.648;2023-03-26T08:53:52;99326.56;;;10.85;75.50
72262;BME280;60173;52.112;8.648;2023-03-26T08:59:17;99329.88;;;10.91;73.41
72262;BME280;60173;52.112;8.648;2023-03-26T09:05:08;99318.81;;;10.96;71.56
72262;BME280;60173;52.112;8.648;2023-03-26T09:13:26;99315.78;;;9.94;74.52
72262;BME280;60173;52.112;8.648;2023-03-26T09:27:14;99305.13;;;8.63;82.80
72262;BME280;60173;52.112;8.648;2023-03-26T09:30:12;99300.94;;;9.14;80.41
72262;BME280;60173;52.112;8.648;2023-03-26T09:33:03;99298.50;;;8.86;80.15
72262;BME280;60173;52.112;8.648;2023-03-26T09:38:51;99291.63;;;8.71;81.29
72262;BME280;60173;52.112;8.648;2023-03-26T09:41:31;99289.16;;;9.10;80.31
72262;BME280;60173;52.112;8.648;2023-03-26T09:44:30;99289.00;;;9.15;80.04
72262;BME280;60173;52.112;8.648;2023-03-26T09:47:30;99289.03;;;9.32;79.41
72262;BME280;60173;52.112;8.648;2023-03-26T09:50:39;99286.75;;;9.69;78.34
72262;BME280;60173;52.112;8.648;2023-03-26T09:58:42;99291.59;;;9.55;77.84
72262;BME280;60173;52.112;8.648;2023-03-26T10:01:19;99283.91;;;9.22;79.74
72262;BME280;60173;52.112;8.648;2023-03-26T10:11:57;99279.28;;;9.14;78.46
72262;BME280;60173;52.112;8.648;2023-03-26T10:14:37;99270.19;;;9.79;77.74
72262;BME280;60173;52.112;8.648;2023-03-26T10:31:14;99280.06;;;9.05;78.66
72262;BME280;60173;52.112;8.648;2023-03-26T10:36:33;99273.28;;;8.59;79.63
72262;BME280;60173;52.112;8.648;2023-03-26T10:44:35;99275.00;;;9.47;77.25
72262;BME280;60173;52.112;8.648;2023-03-26T10:47:18;99269.56;;;9.13;78.14
72262;BME280;60173;52.112;8.648;2023-03-26T10:49:55;99269.72;;;9.60;77.31
72262;BME280;60173;52.112;8.648;2023-03-26T10:52:33;99271.03;;;10.18;75.40
72262;BME280;60173;52.112;8.648;2023-03-26T10:55:16;99272.19;;;10.08;74.61
72262;BME280;60173;52.112;8.648;2023-03-26T11:00:19;99273.41;;;9.29;76.04
72262;BME280;60173;52.112;8.648;2023-03-26T11:06:26;99263.78;;;9.92;74.69
72262;BME280;60173;52.112;8.648;2023-03-26T11:11:50;99266.25;;;10.15;73.71
72262;BME280;60173;52.112;8.648;2023-03-26T11:17:14;99265.09;;;9.51;75.45
72262;BME280;60173;52.112;8.648;2023-03-26T11:20:08;99262.22;;;9.39;75.73
72262;BME280;60173;52.112;8.648;2023-03-26T11:22:49;99255.81;;;9.87;75.24
72262;BME280;60173;52.112;8.648;2023-03-26T11:28:25;99260.31;;;9.14;76.91
72262;BME280;60173;52.112;8.648;2023-03-26T11:31:03;99266.69;;;9.70;76.14
72262;BME280;60173;52.112;8.648;2023-03-26T11:33:36;99265.91;;;9.43;75.09
72262;BME280;60173;52.112;8.648;2023-03-26T11:36:40;99257.13;;;8.94;76.61
72262;BME280;60173;52.112;8.648;2023-03-26T11:39:11;99261.88;;;8.80;77.30
72262;BME280;60173;52.112;8.648;2023-03-26T11:41:38;99252.00;;;8.84;77.72
72262;BME280;60173;52.112;8.648;2023-03-26T11:44:20;99261.28;;;9.35;76.17
72262;BME280;60173;52.112;8.648;2023-03-26T11:46:49;99259.91;;;8.63;77.39
72262;BME280;60173;52.112;8.648;2023-03-26T11:49:19;99248.16;;;8.85;77.66
72262;BME280;60173;52.112;8.648;2023-03-26T11:51:47;99252.34;;;8.91;76.96
72262;BME280;60173;52.112;8.648;2023-03-26T11:54:14;99255.28;;;8.64;78.43
72262;BME280;60173;52.112;8.648;2023-03-26T11:59:40;99256.25;;;8.68;80.13
72262;BME280;60173;52.112;8.648;2023-03-26T12:07:34;99241.13;;;8.67;79.76
72262;BME280;60173;52.112;8.648;2023-03-26T12:10:05;99245.19;;;9.21;80.66
72262;BME280;60173;52.112;8.648;2023-03-26T12:12:45;99247.22;;;8.98;80.39
72262;BME280;60173;52.112;8.648;2023-03-26T12:15:14;99247.72;;;8.92;80.91
72262;BME280;60173;52.112;8.648;2023-03-26T12:17:41;99241.03;;;9.07;80.85
72262;BME280;60173;52.112;8.648;2023-03-26T12:23:32;99243.25;;;9.04;79.84
72262;BME280;60173;52.112;8.648;2023-03-26T12:26:10;99245.97;;;9.04;80.66
72262;BME280;60173;52.112;8.648;2023-03-26T12:28:43;99241.97;;;8.93;78.91
72262;BME280;60173;52.112;8.648;2023-03-26T12:31:11;99254.50;;;8.63;79.00
72262;BME280;60173;52.112;8.648;2023-03-26T12:33:38;99249.25;;;8.75;79.36
72262;BME280;60173;52.112;8.648;2023-03-26T12:38:46;99250.81;;;8.68;78.51
72262;BME280;60173;52.112;8.648;2023-03-26T12:41:35;99245.13;;;8.38;78.24
72262;BME280;60173;52.112;8.648;2023-03-26T12:44:29;99259.25;;;8.57;79.73
72262;BME280;60173;52.112;8.648;2023-03-26T12:47:19;99244.06;;;8.39;78.96
72262;BME280;60173;52.112;8.648;2023-03-26T12:50:12;99253.53;;;8.68;78.21
72262;BME280;60173;52.112;8.648;2023-03-26T12:52:51;99247.03;;;8.69;78.96
72262;BME280;60173;52.112;8.648;2023-03-26T12:55:47;99249.88;;;8.64;79.82
72262;BME280;60173;52.112;8.648;2023-03-26T13:01:09;99247.97;;;8.64;80.89
72262;BME280;60173;52.112;8.648;2023-03-26T13:04:06;99254.50;;;8.72;80.70
72262;BME280;60173;52.112;8.648;2023-03-26T13:06:40;99243.75;;;9.07;80.91
72262;BME280;60173;52.112;8.648;2023-03-26T13:09:57;99246.59;;;9.01;80.84
72262;BME280;60173;52.112;8.648;2023-03-26T13:12:45;99251.66;;;8.37;83.19
72262;BME280;60173;52.112;8.648;2023-03-26T13:15:24;99250.31;;;8.17;84.18
72262;BME280;60173;52.112;8.648;2023-03-26T13:18:20;99252.97;;;8.88;82.27
72262;BME280;60173;52.112;8.648;2023-03-26T13:20:56;99251.28;;;8.61;83.22
72262;BME280;60173;52.112;8.648;2023-03-26T13:23:38;99248.59;;;8.61;83.39
72262;BME280;60173;52.112;8.648;2023-03-26T13:26:11;99261.41;;;8.95;82.83
72262;BME280;60173;52.112;8.648;2023-03-26T13:29:11;99255.06;;;9.09;81.52
72262;BME280;60173;52.112;8.648;2023-03-26T13:32:12;99249.66;;;9.17;81.61
72262;BME280;60173;52.112;8.648;2023-03-26T13:40:38;99248.03;;;8.42;85.11
72262;BME280;60173;52.112;8.648;2023-03-26T13:48:23;99247.31;;;8.27;88.30
72262;BME280;60173;52.112;8.648;2023-03-26T13:51:13;99247.66;;;8.26;88.07
72262;BME280;60173;52.112;8.648;2023-03-26T13:53:49;99240.97;;;8.32;88.10
72262;BME280;60173;52.112;8.648;2023-03-26T13:56:18;99241.44;;;8.56;86.74
72262;BME280;60173;52.112;8.648;2023-03-26T13:58:49;99251.94;;;8.67;86.40
72262;BME280;60173;52.112;8.648;2023-03-26T14:01:20;99246.88;;;8.74;85.56
72262;BME280;60173;52.112;8.648;2023-03-26T14:03:52;99244.47;;;8.64;85.70
72262;BME280;60173;52.112;8.648;2023-03-26T14:10:04;99258.38;;;8.08;87.21
72262;BME280;60173;52.112;8.648;2023-03-26T14:15:20;99247.97;;;8.33;87.66
72262;BME280;60173;52.112;8.648;2023-03-26T14:17:59;99260.50;;;8.20;88.61
72262;BME280;60173;52.112;8.648;2023-03-26T14:26:14;99261.19;;;7.27;91.22
72262;BME280;60173;52.112;8.648;2023-03-26T14:31:42;99265.47;;;7.28;91.04
72262;BME280;60173;52.112;8.648;2023-03-26T14:34:40;99268.25;;;7.00;90.71
72262;BME280;60173;52.112;8.648;2023-03-26T14:37:36;99271.63;;;7.06;90.70
72262;BME280;60173;52.112;8.648;2023-03-26T14:45:57;99275.75;;;6.90;88.57
72262;BME280;60173;52.112;8.648;2023-03-26T14:48:49;99272.06;;;6.86;88.40
72262;BME280;60173;52.112;8.648;2023-03-26T14:54:29;99274.50;;;6.60;88.38
72262;BME280;60173;52.112;8.648;2023-03-26T14:57:22;99271.75;;;6.73;87.68
72262;BME280;60173;52.112;8.648;2023-03-26T15:03:14;99278.03;;;6.83;88.31
72262;BME280;60173;52.112;8.648;2023-03-26T15:06:04;99283.47;;;6.69;88.04
72262;BME280;60173;52.112;8.648;2023-03-26T15:09:02;99284.47;;;6.59;88.45
72262;BME280;60173;52.112;8.648;2023-03-26T15:14:52;99296.03;;;6.32;87.69
72262;BME280;60173;52.112;8.648;2023-03-26T15:20:27;99288.25;;;6.30;86.55
72262;BME280;60173;52.112;8.648;2023-03-26T15:26:18;99302.59;;;6.12;87.47
72262;BME280;60173;52.112;8.648;2023-03-26T15:32:15;99303.63;;;6.30;87.65
72262;BME280;60173;52.112;8.648;2023-03-26T15:35:09;99307.03;;;6.36;85.60
72262;BME280;60173;52.112;8.648;2023-03-26T15:40:44;99309.03;;;6.44;87.26
72262;BME280;60173;52.112;8.648;2023-03-26T15:43:15;99301.63;;;6.36;85.42
72262;BME280;60173;52.112;8.648;2023-03-26T15:48:30;99306.41;;;6.25;82.78
72262;BME280;60173;52.112;8.648;2023-03-26T15:51:26;99309.63;;;6.41;82.56
72262;BME280;60173;52.112;8.648;2023-03-26T16:01:57;99325.63;;;6.37;81.33
72262;BME280;60173;52.112;8.648;2023-03-26T16:04:49;99324.03;;;6.50;79.94
72262;BME280;60173;52.112;8.648;2023-03-26T16:10:54;99325.81;;;6.41;78.93
72262;BME280;60173;52.112;8.648;2023-03-26T16:16:17;99334.41;;;6.43;78.05
72262;BME280;60173;52.112;8.648;2023-03-26T16:22:05;99340.00;;;6.46;78.15
72262;BME280;60173;52.112;8.648;2023-03-26T16:24:34;99340.63;;;6.57;78.99
72262;BME280;60173;52.112;8.648;2023-03-26T16:32:32;99349.53;;;6.25;75.29
72262;BME280;60173;52.112;8.648;2023-03-26T16:35:24;99346.28;;;6.28;75.05
72262;BME280;60173;52.112;8.648;2023-03-26T16:38:12;99355.75;;;6.25;74.35
72262;BME280;60173;52.112;8.648;2023-03-26T16:40:50;99363.34;;;6.23;75.59
72262;BME280;60173;52.112;8.648;2023-03-26T16:46:35;99364.44;;;6.22;74.51
72262;BME280;60173;52.112;8.648;2023-03-26T16:49:47;99365.53;;;6.21;74.50
72262;BME280;60173;52.112;8.648;2023-03-26T16:52:48;99375.50;;;6.21;74.94
72262;BME280;60173;52.112;8.648;2023-03-26T16:55:24;99370.50;;;6.14;74.18
72262;BME280;60173;52.112;8.648;2023-03-26T16:58:26;99374.28;;;6.13;72.93
72262;BME280;60173;52.112;8.648;2023-03-26T17:01:08;99392.66;;;6.11;72.67
72262;BME280;60173;52.112;8.648;2023-03-26T17:03:46;99397.25;;;6.10;72.18
72262;BME280;60173;52.112;8.648;2023-03-26T17:11:53;99404.63;;;6.05;71.98
72262;BME280;60173;52.112;8.648;2023-03-26T17:14:39;99406.13;;;6.11;70.66
72262;BME280;60173;52.112;8.648;2023-03-26T17:20:02;99407.97;;;5.97;71.15
72262;BME280;60173;52.112;8.648;2023-03-26T17:22:41;99418.16;;;6.00;70.67